Time;durP1;ratioP1;P1;durP2;ratioP2;P2;SDS_P1;SDS_P2;PMS_P1;PMS_P2;Temp;Humidity;BMP_temperature;BMP_pressure;BME280_temperature;BME280_humidity;BME280_pressure;Samples;Min_cycle;Max_cycle;Signal;HPM_P1;HPM_P2
2024/02/18 00:00:19;;;;;;;11.45;5.93;;;;;;;9.20;100.00;69412.44;5070744;28;20102;-52
2024/02/18 00:02:47;;;;;;;10.93;6.25;;;;;;;9.17;100.00;69411.56;5070941;28;20051;-51
2024/02/18 00:05:15;;;;;;;12.50;5.50;;;;;;;9.16;100.00;69412.41;5070228;28;20053;-53
2024/02/18 00:07:44;;;;;;;14.57;5.72;;;;;;;9.16;100.00;69409.81;5070731;28;20127;-49
2024/02/18 00:10:12;;;;;;;17.73;6.03;;;;;;;9.13;100.00;69406.88;5069517;28;20400;-50
2024/02/18 00:12:41;;;;;;;13.25;5.85;;;;;;;9.09;100.00;69400.22;5069778;28;20044;-51
2024/02/18 00:15:10;;;;;;;15.93;6.22;;;;;;;9.12;100.00;69400.50;5070082;28;20048;-49
2024/02/18 00:17:38;;;;;;;12.52;6.25;;;;;;;9.07;100.00;69397.88;5069448;28;20053;-51
2024/02/18 00:20:10;;;;;;;11.90;5.55;;;;;;;9.03;100.00;69390.03;5069435;28;20040;-52
2024/02/18 00:22:39;;;;;;;11.57;5.55;;;;;;;9.02;100.00;69394.06;5070402;28;20048;-49
2024/02/18 00:25:08;;;;;;;13.35;5.38;;;;;;;9.02;100.00;69394.06;5069255;28;20040;-53
2024/02/18 00:27:36;;;;;;;14.07;6.40;;;;;;;9.02;100.00;69389.44;5069636;28;20076;-51
2024/02/18 00:30:07;;;;;;;13.70;6.00;;;;;;;9.00;100.00;69394.94;5072825;28;20048;-52
2024/02/18 00:32:36;;;;;;;13.90;5.90;;;;;;;9.01;100.00;69390.28;5073301;28;20120;-54
2024/02/18 00:35:05;;;;;;;13.45;5.85;;;;;;;9.02;100.00;69394.06;5072124;28;20055;-52
2024/02/18 00:37:33;;;;;;;11.02;5.25;;;;;;;9.00;100.00;69392.31;5069944;28;20063;-51
2024/02/18 00:40:01;;;;;;;12.35;4.95;;;;;;;9.00;100.00;69392.31;5069152;28;20549;-52
2024/02/18 00:42:29;;;;;;;13.00;5.40;;;;;;;9.03;100.00;69397.84;5071936;28;20100;-51
2024/02/18 00:44:57;;;;;;;11.50;4.90;;;;;;;9.02;100.00;69394.66;5069649;28;20048;-51
2024/02/18 00:47:27;;;;;;;12.50;5.38;;;;;;;9.05;100.00;69398.16;5070302;28;20369;-52
2024/02/18 00:49:55;;;;;;;11.32;5.03;;;;;;;9.05;100.00;69398.16;5073201;28;20098;-52
2024/02/18 00:52:23;;;;;;;10.18;4.57;;;;;;;9.05;100.00;69398.16;5070969;28;20040;-49
2024/02/18 00:54:51;;;;;;;10.55;4.40;;;;;;;9.03;100.00;69395.81;5069250;28;20465;-51
2024/02/18 00:57:20;;;;;;;10.77;5.00;;;;;;;9.03;100.00;69395.81;5071810;28;20157;-52
2024/02/18 00:59:48;;;;;;;9.68;4.47;;;;;;;9.03;100.00;69401.03;5069829;28;20468;-52
2024/02/18 01:02:16;;;;;;;10.93;4.15;;;;;;;9.04;100.00;69396.38;5070839;28;20040;-52
2024/02/18 01:04:46;;;;;;;10.07;3.97;;;;;;;9.05;100.00;69394.97;5072772;28;20056;-52
2024/02/18 01:07:16;;;;;;;12.43;3.83;;;;;;;9.04;100.00;69391.78;5072800;28;20098;-53
2024/02/18 01:09:46;;;;;;;9.23;4.45;;;;;;;9.04;100.00;69394.38;5072512;28;20083;-52
2024/02/18 01:12:14;;;;;;;14.45;4.32;;;;;;;9.06;100.00;69396.13;5071993;28;20365;-52
2024/02/18 01:14:43;;;;;;;10.77;3.83;;;;;;;9.09;100.00;69407.44;5069375;28;20407;-50
2024/02/18 01:17:14;;;;;;;10.18;3.85;;;;;;;9.04;100.00;69396.38;5068392;28;20043;-50
2024/02/18 01:19:42;;;;;;;11.55;4.10;;;;;;;9.07;100.00;69400.47;5069170;28;20056;-51
2024/02/18 01:22:13;;;;;;;14.05;4.38;;;;;;;9.03;100.00;69392.63;5068851;28;20049;-51
2024/02/18 01:24:41;;;;;;;9.82;3.53;;;;;;;9.01;100.00;69393.47;5068454;28;20852;-50
2024/02/18 01:27:09;;;;;;;9.82;3.55;;;;;;;9.00;100.00;69389.13;5068638;28;20127;-52
2024/02/18 01:29:38;;;;;;;10.43;3.80;;;;;;;8.99;100.00;69390.56;5069345;28;20063;-61
2024/02/18 01:32:07;;;;;;;11.65;3.05;;;;;;;9.00;100.00;69394.94;5071456;28;20098;-61
2024/02/18 01:34:35;;;;;;;8.55;3.22;;;;;;;9.01;100.00;69392.91;5071189;28;20048;-62
2024/02/18 01:37:04;;;;;;;12.63;3.00;;;;;;;9.00;100.00;69392.31;5071075;28;20139;-62
2024/02/18 01:39:34;;;;;;;11.00;3.22;;;;;;;9.03;100.00;69392.63;5070622;28;20452;-61
2024/02/18 01:42:02;;;;;;;12.05;3.70;;;;;;;9.02;100.00;69394.06;5071449;28;20496;-61
2024/02/18 01:44:30;;;;;;;13.05;3.38;;;;;;;9.01;100.00;69392.91;5070889;28;20076;-62
2024/02/18 01:46:59;;;;;;;11.40;3.38;;;;;;;9.06;100.00;69399.31;5071231;28;20037;-60
2024/02/18 01:49:30;;;;;;;10.73;3.83;;;;;;;9.06;100.00;69401.34;5070779;28;20044;-61
2024/02/18 01:51:58;;;;;;;11.05;3.40;;;;;;;9.04;100.00;69397.00;5071486;28;20529;-61
2024/02/18 01:54:32;;;;;;;11.32;3.90;;;;;;;9.06;100.00;69398.72;5069959;28;20056;-62
2024/02/18 01:57:05;;;;;;;8.82;3.40;;;;;;;9.07;100.00;69395.28;5069926;28;20057;-61
2024/02/18 01:59:33;;;;;;;;;;;;;;;9.05;100.00;69392.94;5070254;28;20515;-62
2024/02/18 02:02:03;;;;;;;9.38;3.88;;;;;;;9.10;100.00;69400.78;5070786;28;19920;-60
2024/02/18 02:04:31;;;;;;;12.52;3.83;;;;;;;9.11;100.00;69407.16;5070985;28;20044;-61
2024/02/18 02:07:00;;;;;;;12.68;4.20;;;;;;;9.14;100.00;69408.63;5071854;28;20054;-60
2024/02/18 02:09:29;;;;;;;9.60;3.42;;;;;;;9.15;100.00;69411.84;5069797;28;20119;-62
2024/02/18 02:11:58;;;;;;;11.98;3.67;;;;;;;9.13;100.00;69407.47;5070994;28;20040;-60
2024/02/18 02:14:27;;;;;;;13.27;4.40;;;;;;;9.14;100.00;69410.66;5071006;28;20455;-62
2024/02/18 02:16:56;;;;;;;8.27;3.80;;;;;;;9.19;100.00;69413.88;5071017;28;20048;-61
2024/02/18 02:19:24;;;;;;;11.77;4.15;;;;;;;9.16;100.00;69412.41;5071751;28;20551;-62
2024/02/18 02:21:52;;;;;;;9.13;3.40;;;;;;;9.17;100.00;69410.97;5070764;28;20047;-61
2024/02/18 02:24:21;;;;;;;9.98;3.80;;;;;;;9.19;100.00;69413.28;5071683;28;20361;-61
2024/02/18 02:26:53;;;;;;;11.70;4.07;;;;;;;9.16;100.00;69410.38;5072382;28;20430;-60
2024/02/18 02:29:23;;;;;;;8.82;3.47;;;;;;;9.15;100.00;69406.63;5072122;28;20037;-61
2024/02/18 02:31:51;;;;;;;12.43;3.70;;;;;;;9.16;100.00;69415.59;5070594;28;20036;-60
2024/02/18 02:34:23;;;;;;;11.30;3.97;;;;;;;9.18;100.00;69404.91;5070512;28;20078;-61
2024/02/18 02:36:54;;;;;;;10.40;3.35;;;;;;;9.18;100.00;69412.16;5070235;28;20045;-61
2024/02/18 02:39:23;;;;;;;12.63;4.05;;;;;;;9.17;100.00;69405.78;5072087;28;20040;-61
2024/02/18 02:41:51;;;;;;;11.43;3.90;;;;;;;9.16;100.00;69410.38;5072246;28;20040;-61
2024/02/18 02:44:19;;;;;;;11.85;3.22;;;;;;;9.15;100.00;69409.22;5074543;28;20048;-52
2024/02/18 02:46:48;;;;;;;13.10;3.65;;;;;;;9.17;100.00;69410.97;5075599;28;20052;-52
2024/02/18 02:49:17;;;;;;;10.93;3.72;;;;;;;9.18;100.00;69412.72;5075344;28;20048;-52
2024/02/18 02:51:45;;;;;;;10.20;3.80;;;;;;;9.18;100.00;69410.13;5072288;28;20094;-49
2024/02/18 02:54:13;;;;;;;9.57;3.40;;;;;;;9.15;100.00;69409.22;5071970;28;20637;-53
2024/02/18 02:56:41;;;;;;;10.82;3.53;;;;;;;9.16;100.00;69407.19;5071187;28;20048;-50
2024/02/18 02:59:10;;;;;;;8.68;3.45;;;;;;;9.12;100.00;69403.13;5072096;28;20460;-55
2024/02/18 03:01:38;;;;;;;9.93;3.47;;;;;;;9.14;100.00;69408.06;5073456;28;20446;-50
2024/02/18 03:04:07;;;;;;;12.45;3.92;;;;;;;9.13;100.00;69406.88;5071726;28;20557;-50
2024/02/18 03:06:36;;;;;;;10.10;3.97;;;;;;;9.14;100.00;69408.06;5071188;28;20075;-51
2024/02/18 03:09:04;;;;;;;10.15;3.60;;;;;;;9.16;100.00;69409.81;5071671;28;20148;-52
2024/02/18 03:11:32;;;;;;;11.55;3.80;;;;;;;9.14;100.00;69410.66;5070444;28;20044;-50
2024/02/18 03:14:00;;;;;;;8.82;3.72;;;;;;;9.11;100.00;69402.53;5070731;28;20049;-50
2024/02/18 03:16:29;;;;;;;9.93;4.22;;;;;;;9.13;100.00;69409.50;5070537;28;20052;-53
2024/02/18 03:18:57;;;;;;;7.47;3.67;;;;;;;9.11;100.00;69407.16;5069774;28;20067;-49
2024/02/18 03:21:27;;;;;;;9.13;3.30;;;;;;;9.09;100.00;69402.81;5071779;28;20047;-51
2024/02/18 03:23:55;;;;;;;10.57;3.33;;;;;;;9.08;100.00;69401.06;5071302;28;20072;-52
2024/02/18 03:26:25;;;;;;;10.38;3.75;;;;;;;9.10;100.00;69403.41;5069620;28;20503;-53
2024/02/18 03:28:54;;;;;;;11.45;4.07;;;;;;;9.12;100.00;69403.72;5070304;28;20054;-51
2024/02/18 03:31:22;;;;;;;10.18;3.25;;;;;;;9.12;100.00;69405.72;5071434;28;20048;-49
2024/02/18 03:33:50;;;;;;;10.18;3.53;;;;;;;9.11;100.00;69401.97;5070930;28;20499;-51
2024/02/18 03:36:19;;;;;;;9.38;3.92;;;;;;;9.11;100.00;69404.56;5070135;28;20143;-49
2024/02/18 03:38:48;;;;;;;11.10;3.33;;;;;;;9.10;100.00;69400.78;5071420;28;20071;-52
2024/02/18 03:41:16;;;;;;;11.13;4.43;;;;;;;9.11;100.00;69401.97;5072584;28;20071;-51
2024/02/18 03:43:44;;;;;;;8.63;3.38;;;;;;;9.10;100.00;69403.41;5070052;28;20498;-52
2024/02/18 03:46:13;;;;;;;11.25;3.15;;;;;;;9.12;100.00;69406.31;5070794;28;20051;-50
2024/02/18 03:48:41;;;;;;;9.13;2.80;;;;;;;9.16;100.00;69407.78;5069591;28;20102;-49
2024/02/18 03:51:09;;;;;;;9.07;3.47;;;;;;;9.16;100.00;69409.81;5071101;28;20087;-49
2024/02/18 03:53:37;;;;;;;8.45;2.75;;;;;;;9.18;100.00;69409.53;5071032;28;20655;-49
2024/02/18 03:56:07;;;;;;;8.50;3.20;;;;;;;9.16;100.00;69409.81;5069549;28;20076;-49
2024/02/18 03:58:40;;;;;;;9.50;3.30;;;;;;;9.18;100.00;69409.53;5070483;28;20056;-50
2024/02/18 04:01:09;;;;;;;11.32;2.85;;;;;;;9.19;100.00;69413.88;5071017;28;20500;-49
2024/02/18 04:03:37;;;;;;;10.48;3.67;;;;;;;9.16;100.00;69415.59;5070522;28;20048;-49
2024/02/18 04:06:06;;;;;;;9.55;3.30;;;;;;;9.19;100.00;69415.91;5072147;28;20102;-52
2024/02/18 04:08:34;;;;;;;10.30;3.22;;;;;;;9.20;100.00;69417.06;5073934;28;20045;-50
2024/02/18 04:11:02;;;;;;;8.45;3.10;;;;;;;9.19;100.00;69413.28;5069427;28;20043;-51
2024/02/18 04:13:32;;;;;;;9.95;3.38;;;;;;;9.19;100.00;69415.91;5070188;28;20048;-51
2024/02/18 04:16:00;;;;;;;11.00;3.40;;;;;;;9.19;100.00;69413.28;5070230;28;20072;-51
2024/02/18 04:18:28;;;;;;;10.20;3.45;;;;;;;9.18;100.00;69412.72;5070629;28;20052;-51
2024/02/18 04:20:59;;;;;;;8.45;3.70;;;;;;;9.19;100.00;69413.28;5068477;28;20526;-53
2024/02/18 04:23:27;;;;;;;12.13;3.70;;;;;;;9.19;100.00;69410.69;5072913;28;20052;-51
2024/02/18 04:25:55;;;;;;;9.20;3.60;;;;;;;9.19;100.00;69411.28;5073304;28;20476;-52
2024/02/18 04:28:24;;;;;;;10.85;3.67;;;;;;;9.18;100.00;69417.94;5069387;28;20110;-52
2024/02/18 04:30:53;;;;;;;10.13;3.70;;;;;;;9.18;100.00;69412.72;5070111;28;20055;-51
2024/02/18 04:33:21;;;;;;;11.48;3.72;;;;;;;9.18;100.00;69409.53;5072101;28;20119;-52
2024/02/18 04:35:50;;;;;;;11.43;3.22;;;;;;;9.16;100.00;69412.41;5070526;28;20758;-54
2024/02/18 04:38:18;;;;;;;11.55;3.83;;;;;;;9.13;100.00;69406.88;5069956;28;20087;-52
2024/02/18 04:40:46;;;;;;;9.93;3.45;;;;;;;9.12;100.00;69406.31;5067822;28;20053;-53
2024/02/18 04:43:16;;;;;;;11.07;3.90;;;;;;;9.13;100.00;69409.50;5069641;28;20044;-49
2024/02/18 04:45:45;;;;;;;12.07;3.38;;;;;;;9.10;100.00;69403.97;5071332;28;20072;-48
2024/02/18 04:48:15;;;;;;;11.55;3.60;;;;;;;9.08;100.00;69401.06;5072738;28;20052;-49
2024/02/18 04:50:44;;;;;;;11.18;3.60;;;;;;;9.07;100.00;69403.09;5070041;28;20041;-52
2024/02/18 04:53:12;;;;;;;11.55;3.63;;;;;;;9.04;100.00;69396.38;5069602;28;20036;-49
2024/02/18 04:55:40;;;;;;;11.13;3.97;;;;;;;9.00;100.00;69391.72;5068299;28;20047;-50
2024/02/18 04:58:08;;;;;;;11.75;3.92;;;;;;;9.00;100.00;69389.13;5069270;28;20051;-50
2024/02/18 05:00:36;;;;;;;12.35;4.32;;;;;;;8.94;100.00;69385.91;5069822;28;20071;-52
2024/02/18 05:03:05;;;;;;;14.48;4.20;;;;;;;8.92;100.00;69385.59;5069010;28;20102;-52
2024/02/18 05:05:34;;;;;;;11.77;4.18;;;;;;;8.85;100.00;69374.81;5068030;28;20128;-52
2024/02/18 05:08:03;;;;;;;10.43;3.80;;;;;;;8.84;100.00;69374.25;5071860;28;20507;-50
2024/02/18 05:10:31;;;;;;;9.35;3.55;;;;;;;8.80;100.00;69369.59;5067785;28;20044;-54
2024/02/18 05:12:59;;;;;;;13.07;4.38;;;;;;;8.77;100.00;69364.06;5067374;28;20139;-53
2024/02/18 05:15:28;;;;;;;14.18;3.83;;;;;;;8.73;100.00;69364.63;5069122;28;20056;-52
2024/02/18 05:17:56;;;;;;;10.57;3.97;;;;;;;8.71;100.00;69359.09;5069324;28;20040;-52
2024/02/18 05:20:25;;;;;;;11.48;4.07;;;;;;;8.71;100.00;69359.09;5069557;28;20560;-52
2024/02/18 05:22:55;;;;;;;12.55;4.22;;;;;;;8.67;100.00;69355.03;5071284;28;20048;-51
2024/02/18 05:25:23;;;;;;;11.15;4.75;;;;;;;8.63;100.00;69353.56;5068474;28;20492;-52
2024/02/18 05:27:52;;;;;;;13.90;3.97;;;;;;;8.62;100.00;69354.97;5071316;28;20049;-53
2024/02/18 05:30:20;;;;;;;9.82;4.40;;;;;;;8.59;100.00;69343.69;5071903;28;20032;-50
2024/02/18 05:32:50;;;;;;;10.05;4.30;;;;;;;8.61;100.00;69348.59;5069355;28;20464;-53
2024/02/18 05:35:19;;;;;;;10.05;3.88;;;;;;;8.52;100.00;69335.53;5068819;28;20047;-50
2024/02/18 05:37:47;;;;;;;11.20;4.22;;;;;;;8.52;100.00;69337.53;5069148;28;20063;-52
2024/02/18 05:40:16;;;;;;;10.43;4.30;;;;;;;8.53;100.00;69339.28;5068137;28;20044;-52
2024/02/18 05:42:45;;;;;;;12.00;3.90;;;;;;;8.49;100.00;69331.44;5068894;28;20121;-53
2024/02/18 05:45:20;;;;;;;10.35;4.30;;;;;;;8.48;100.00;69333.47;5069146;28;20514;-52
2024/02/18 05:47:48;;;;;;;10.68;4.38;;;;;;;8.43;100.00;69327.63;5071268;28;20052;-53
2024/02/18 05:50:16;;;;;;;11.52;4.38;;;;;;;8.43;100.00;69330.22;5068904;28;20120;-52
2024/02/18 05:52:45;;;;;;;11.85;4.30;;;;;;;8.38;100.00;69322.38;5071337;28;20530;-52
2024/02/18 05:55:13;;;;;;;10.77;4.13;;;;;;;8.38;100.00;69322.38;5068453;28;20041;-49
2024/02/18 05:57:42;;;;;;;11.68;4.60;;;;;;;8.37;100.00;69312.81;5068387;28;20067;-52
2024/02/18 06:00:12;;;;;;;12.43;4.70;;;;;;;8.36;100.00;69317.44;5068966;28;20573;-51
2024/02/18 06:02:40;;;;;;;11.95;4.78;;;;;;;8.38;100.00;69321.78;5069039;28;20057;-52
2024/02/18 06:05:17;;;;;;;12.52;5.15;;;;;;;8.33;100.00;69315.97;5068428;28;20045;-52
2024/02/18 06:07:47;;;;;;;14.73;5.28;;;;;;;8.28;100.00;69316.50;5071714;28;20134;-52
2024/02/18 06:10:15;;;;;;;13.30;4.93;;;;;;;8.26;100.00;69308.97;5070434;28;20048;-62
2024/02/18 06:12:45;;;;;;;13.20;5.03;;;;;;;8.21;100.00;69300.56;5070419;28;20044;-61
2024/02/18 06:15:13;;;;;;;15.32;5.32;;;;;;;8.17;100.00;69301.09;5071382;28;20068;-53
2024/02/18 06:17:42;;;;;;;14.18;5.60;;;;;;;8.17;100.00;69298.50;5072089;28;20075;-53
2024/02/18 06:20:12;;;;;;;15.27;5.70;;;;;;;8.17;100.00;69303.69;5075901;28;20380;-52
2024/02/18 06:22:40;;;;;;;13.27;5.80;;;;;;;8.15;100.00;69298.75;5075557;28;20058;-52
2024/02/18 06:25:09;;;;;;;13.30;5.00;;;;;;;8.10;100.00;69290.91;5071192;28;20109;-53
2024/02/18 06:27:38;;;;;;;11.10;4.90;;;;;;;8.09;100.00;69289.19;5072137;28;20040;-53
2024/02/18 06:30:09;;;;;;;11.90;5.00;;;;;;;8.07;100.00;69286.84;5074128;28;20046;-50
2024/02/18 06:32:37;;;;;;;9.95;4.50;;;;;;;8.08;100.00;69288.59;5072814;28;20049;-51
2024/02/18 06:35:08;;;;;;;12.07;5.20;;;;;;;8.09;100.00;69287.16;5071957;28;20050;-49
2024/02/18 06:37:36;;;;;;;11.15;5.10;;;;;;;8.05;100.00;69284.53;5073749;28;20541;-62
2024/02/18 06:40:06;;;;;;;12.30;4.72;;;;;;;8.04;100.00;69280.75;5073578;28;20508;-62
2024/02/18 06:42:34;;;;;;;11.98;4.97;;;;;;;8.01;100.00;69280.44;5073985;28;20080;-61
2024/02/18 06:45:03;;;;;;;14.88;5.20;;;;;;;8.02;100.00;69283.63;5073807;28;20487;-61
2024/02/18 06:47:35;;;;;;;12.68;4.70;;;;;;;8.04;100.00;69280.75;5074357;28;20091;-61
2024/02/18 06:50:04;;;;;;;13.13;5.10;;;;;;;8.03;100.00;69282.19;5073213;28;20403;-61
2024/02/18 06:52:32;;;;;;;17.10;5.05;;;;;;;8.01;100.00;69280.44;5075841;28;20051;-61
2024/02/18 06:55:00;;;;;;;12.13;4.13;;;;;;;8.01;100.00;69277.25;5074699;28;20124;-61
2024/02/18 06:57:29;;;;;;;12.82;3.83;;;;;;;8.02;100.00;69281.03;5073760;28;20055;-61
2024/02/18 06:59:57;;;;;;;9.60;3.85;;;;;;;8.01;100.00;69285.06;5073890;28;20055;-61
2024/02/18 07:02:25;;;;;;;10.77;4.25;;;;;;;7.99;100.00;69277.53;5074194;28;20102;-61
2024/02/18 07:04:56;;;;;;;14.65;4.10;;;;;;;8.00;100.00;69278.69;5075339;28;20418;-61
2024/02/18 07:07:24;;;;;;;13.65;4.53;;;;;;;7.98;100.00;69273.78;5073928;28;20052;-61
2024/02/18 07:09:52;;;;;;;11.65;4.22;;;;;;;7.98;100.00;69276.94;5073202;28;20131;-61
2024/02/18 07:12:20;;;;;;;13.32;4.00;;;;;;;8.02;100.00;69284.22;5073075;28;20062;-61
2024/02/18 07:14:49;;;;;;;9.82;3.40;;;;;;;8.02;100.00;69278.44;5073614;28;20044;-61
2024/02/18 07:17:19;;;;;;;8.85;3.65;;;;;;;8.02;100.00;69281.03;5073737;28;20408;-61
2024/02/18 07:19:49;;;;;;;10.88;3.78;;;;;;;8.01;100.00;69279.88;5074044;28;20053;-61
2024/02/18 07:22:19;;;;;;;11.63;3.88;;;;;;;8.02;100.00;69281.03;5074246;28;20094;-60
2024/02/18 07:24:47;;;;;;;10.10;3.53;;;;;;;8.01;100.00;69283.03;5070909;28;20048;-50
2024/02/18 07:27:16;;;;;;;11.20;3.78;;;;;;;8.02;100.00;69279.00;5071321;28;20053;-49
2024/02/18 07:29:44;;;;;;;11.40;3.85;;;;;;;8.02;100.00;69281.03;5072172;28;20106;-52
2024/02/18 07:32:13;;;;;;;8.27;3.78;;;;;;;7.99;100.00;69277.53;5070972;28;20079;-51
2024/02/18 07:34:41;;;;;;;9.52;3.45;;;;;;;7.99;100.00;69280.13;5072959;28;20049;-52
2024/02/18 07:37:10;;;;;;;11.73;3.95;;;;;;;7.97;100.00;69280.41;5071463;28;20059;-48
2024/02/18 07:39:40;;;;;;;16.02;4.10;;;;;;;8.01;100.00;69285.06;5070376;28;20045;-52
2024/02/18 07:42:08;;;;;;;8.88;3.67;;;;;;;7.97;100.00;69272.59;5073086;28;20131;-51
2024/02/18 07:44:36;;;;;;;12.68;3.70;;;;;;;7.95;100.00;69271.44;5070498;28;20102;-51
2024/02/18 07:47:05;;;;;;;11.07;4.25;;;;;;;7.93;100.00;69274.31;5072943;28;20052;-52
2024/02/18 07:49:33;;;;;;;12.13;3.80;;;;;;;7.94;100.00;69269.69;5074569;28;20151;-51
2024/02/18 07:52:01;;;;;;;10.32;3.80;;;;;;;7.95;100.00;69273.47;5071113;28;20056;-52
2024/02/18 07:54:29;;;;;;;8.75;4.05;;;;;;;7.92;100.00;69275.75;5068500;28;20140;-53
2024/02/18 07:56:59;;;;;;;18.45;4.40;;;;;;;7.93;100.00;69271.72;5069990;28;20105;-51
2024/02/18 07:59:28;;;;;;;11.07;4.70;;;;;;;7.93;100.00;69271.72;5070068;28;20063;-52
2024/02/18 08:01:56;;;;;;;11.95;4.63;;;;;;;7.91;100.00;69268.81;5070771;28;20051;-53
2024/02/18 08:04:24;;;;;;;10.60;4.53;;;;;;;7.87;100.00;69266.75;5070281;28;20387;-50
2024/02/18 08:06:53;;;;;;;13.60;4.57;;;;;;;7.85;100.00;69259.78;5070361;28;20070;-48
2024/02/18 08:09:22;;;;;;;10.48;5.10;;;;;;;7.84;100.00;69260.63;5070325;28;20078;-52
2024/02/18 08:11:50;;;;;;;11.20;4.45;;;;;;;7.87;100.00;69264.16;5070356;28;20496;-51
2024/02/18 08:14:20;;;;;;;15.00;4.57;;;;;;;7.86;100.00;69260.38;5070056;28;20040;-51
2024/02/18 08:16:48;;;;;;;13.30;4.75;;;;;;;7.85;100.00;69261.81;5070373;28;20037;-51
2024/02/18 08:19:16;;;;;;;12.38;5.05;;;;;;;7.85;100.00;69264.97;5070038;28;20071;-52
2024/02/18 08:21:44;;;;;;;12.32;5.38;;;;;;;7.86;100.00;69262.97;5070079;28;20051;-52
2024/02/18 08:24:14;;;;;;;9.10;4.57;;;;;;;7.84;100.00;69261.22;5069871;28;20559;-51
2024/02/18 08:26:45;;;;;;;;;;;;;;;7.87;100.00;69264.16;5072102;28;20055;-52
2024/02/18 08:29:13;;;;;;;9.18;4.47;;;;;;;7.85;100.00;69261.81;5070547;28;19920;-50
2024/02/18 08:31:42;;;;;;;11.65;4.63;;;;;;;7.79;100.00;69255.41;5069923;28;20056;-60
2024/02/18 08:34:13;;;;;;;10.95;5.18;;;;;;;7.81;100.00;69259.75;5070856;28;20093;-62
2024/02/18 08:36:42;;;;;;;10.70;4.60;;;;;;;7.84;100.00;69260.63;5070660;28;20040;-61
2024/02/18 08:39:10;;;;;;;11.68;4.72;;;;;;;7.82;100.00;69255.72;5070800;28;20051;-61
2024/02/18 08:41:38;;;;;;;13.90;5.25;;;;;;;7.76;100.00;69254.50;5070493;28;20427;-62
2024/02/18 08:44:06;;;;;;;11.52;5.10;;;;;;;7.75;100.00;69251.31;5072968;28;20517;-62
2024/02/18 08:46:34;;;;;;;14.20;5.65;;;;;;;7.73;100.00;69248.41;5069217;28;20098;-62
2024/02/18 08:49:07;;;;;;;10.98;5.18;;;;;;;7.77;100.00;69253.06;5071007;28;20048;-62
2024/02/18 08:51:37;;;;;;;13.98;5.70;;;;;;;7.78;100.00;69251.63;5071392;28;20071;-61
2024/02/18 08:54:06;;;;;;;15.00;5.40;;;;;;;7.77;100.00;69255.66;5070823;28;20045;-61
2024/02/18 08:56:34;;;;;;;13.00;5.22;;;;;;;7.74;100.00;69247.56;5072086;28;20041;-61
2024/02/18 08:59:03;;;;;;;14.18;5.35;;;;;;;7.73;100.00;69245.81;5072583;28;20044;-61
2024/02/18 09:01:31;;;;;;;9.90;5.20;;;;;;;7.72;100.00;69244.66;5070645;28;20063;-62
2024/02/18 09:04:00;;;;;;;17.98;5.63;;;;;;;7.68;100.00;69240.56;5071513;28;20098;-61
2024/02/18 09:06:29;;;;;;;11.20;4.57;;;;;;;7.65;100.00;69237.09;5072837;28;20123;-61
2024/02/18 09:08:58;;;;;;;13.57;5.50;;;;;;;7.70;100.00;69242.91;5073109;28;20083;-61
2024/02/18 09:11:26;;;;;;;12.50;5.63;;;;;;;7.66;100.00;69237.66;5069772;28;20045;-61
2024/02/18 09:13:54;;;;;;;18.35;6.00;;;;;;;7.67;100.00;69241.44;5070527;28;20049;-62
2024/02/18 09:16:23;;;;;;;11.38;5.38;;;;;;;7.63;100.00;69239.38;5070624;28;20041;-61
2024/02/18 09:18:51;;;;;;;11.75;5.05;;;;;;;7.62;100.00;69241.38;5070284;28;20045;-61
2024/02/18 09:21:19;;;;;;;12.65;5.18;;;;;;;7.59;100.00;69233.28;5070312;28;20037;-61
2024/02/18 09:23:49;;;;;;;14.00;5.22;;;;;;;7.57;100.00;69230.38;5070231;28;20055;-61
2024/02/18 09:26:17;;;;;;;13.07;5.13;;;;;;;7.53;100.00;69226.28;5069594;28;20562;-61
2024/02/18 09:28:45;;;;;;;11.88;5.28;;;;;;;7.55;100.00;69228.63;5070239;28;20060;-61
2024/02/18 09:31:14;;;;;;;12.73;5.03;;;;;;;7.60;100.00;69231.25;5071642;28;20052;-61
2024/02/18 09:33:42;;;;;;;13.02;5.30;;;;;;;7.58;100.00;69231.53;5070028;28;20046;-61
2024/02/18 09:36:11;;;;;;;10.32;4.80;;;;;;;7.57;100.00;69230.38;5068860;28;20060;-61
2024/02/18 09:38:39;;;;;;;12.77;5.57;;;;;;;7.54;100.00;69230.06;5072417;28;20068;-61
2024/02/18 09:41:16;;;;;;;13.00;4.95;;;;;;;7.52;100.00;69225.13;5072417;28;20093;-61
2024/02/18 09:43:46;;;;;;;11.02;5.07;;;;;;;7.53;100.00;69228.88;5072628;28;20044;-61
2024/02/18 09:46:15;;;;;;;13.55;5.70;;;;;;;7.55;100.00;69231.22;5072561;28;20075;-61
2024/02/18 09:48:43;;;;;;;11.35;5.13;;;;;;;7.50;100.00;69222.81;5072210;28;20044;-61
2024/02/18 09:51:14;;;;;;;10.35;5.00;;;;;;;7.52;100.00;69230.31;5069760;28;20053;-61
2024/02/18 09:53:42;;;;;;;12.52;5.05;;;;;;;7.55;100.00;69233.81;5073428;28;20052;-61
2024/02/18 09:56:12;;;;;;;11.27;4.78;;;;;;;7.54;100.00;69224.88;5073272;28;20047;-61
2024/02/18 09:58:41;;;;;;;13.30;5.07;;;;;;;7.52;100.00;69224.53;5073828;28;20090;-62
2024/02/18 10:01:10;;;;;;;12.32;5.07;;;;;;;7.49;100.00;69224.22;5072842;28;20531;-52
2024/02/18 10:03:38;;;;;;;14.20;5.00;;;;;;;7.49;100.00;69226.81;5075659;28;20062;-61
2024/02/18 10:06:07;;;;;;;16.50;5.15;;;;;;;7.53;100.00;69226.28;5072014;28;20055;-61
2024/02/18 10:08:42;;;;;;;9.85;4.93;;;;;;;7.56;100.00;69229.78;5073347;28;20084;-61
2024/02/18 10:11:12;;;;;;;12.10;4.43;;;;;;;7.51;100.00;69226.56;5072231;28;20226;-61
2024/02/18 10:13:41;;;;;;;12.77;4.43;;;;;;;7.50;100.00;69222.22;5075672;28;20036;-61
2024/02/18 10:16:09;;;;;;;11.77;4.78;;;;;;;7.52;100.00;69230.31;5072996;28;20562;-63
2024/02/18 10:18:37;;;;;;;14.50;4.50;;;;;;;7.51;100.00;69223.97;5073250;28;20044;-63
2024/02/18 10:21:07;;;;;;;7.75;4.43;;;;;;;7.51;100.00;69226.56;5073373;28;20044;-63
2024/02/18 10:23:36;;;;;;;9.45;3.88;;;;;;;7.52;100.00;69227.16;5073007;28;20136;-62
2024/02/18 10:26:07;;;;;;;12.73;4.32;;;;;;;7.55;100.00;69228.03;5075106;28;20043;-63
2024/02/18 10:28:37;;;;;;;14.55;4.90;;;;;;;7.56;100.00;69224.59;5074834;28;20044;-61
2024/02/18 10:31:10;;;;;;;10.60;4.47;;;;;;;7.59;100.00;69235.88;5072992;28;21102;-62
2024/02/18 10:33:41;;;;;;;10.43;4.30;;;;;;;7.57;100.00;69230.38;5072862;28;20041;-61
2024/02/18 10:36:11;;;;;;;10.90;4.60;;;;;;;7.60;100.00;69229.25;5071096;28;20049;-61
2024/02/18 10:38:45;;;;;;;15.20;4.65;;;;;;;7.58;100.00;69231.53;5072609;28;20059;-62
2024/02/18 10:41:17;;;;;;;10.85;4.60;;;;;;;7.56;100.00;69232.38;5071591;28;20459;-62
2024/02/18 10:43:51;;;;;;;14.77;4.67;;;;;;;7.57;100.00;69228.34;5072615;28;20056;-62
2024/02/18 10:46:21;;;;;;;14.65;5.20;;;;;;;7.55;100.00;69228.03;5072836;28;20047;-63
2024/02/18 10:48:53;;;;;;;10.98;4.38;;;;;;;7.56;100.00;69229.78;5072227;28;20040;-62
2024/02/18 10:51:25;;;;;;;10.30;4.45;;;;;;;7.56;100.00;69229.78;5074270;28;20048;-62
2024/02/18 10:54:04;;;;;;;9.18;4.30;;;;;;;7.54;100.00;69224.25;5072366;28;20053;-61
2024/02/18 10:56:33;;;;;;;13.50;4.55;;;;;;;7.55;100.00;69228.63;5071103;28;20045;-62
2024/02/18 10:59:14;;;;;;;13.82;4.78;;;;;;;7.51;100.00;69223.97;5071914;28;20045;-62
2024/02/18 11:01:49;;;;;;;11.27;4.32;;;;;;;7.53;100.00;69225.72;5072296;28;20052;-61
2024/02/18 11:04:18;;;;;;;12.30;4.60;;;;;;;7.56;100.00;69231.81;5071366;28;20048;-62
2024/02/18 11:06:47;;;;;;;11.20;3.83;;;;;;;7.60;100.00;69231.25;5072179;28;20064;-61
2024/02/18 11:09:17;;;;;;;10.15;4.05;;;;;;;7.57;100.00;69230.94;5070802;28;20380;-62
2024/02/18 11:11:48;;;;;;;9.48;3.95;;;;;;;7.63;100.00;69236.78;5071565;28;20048;-62
2024/02/18 11:14:19;;;;;;;9.10;3.28;;;;;;;7.61;100.00;69235.59;5072153;28;20044;-49
2024/02/18 11:16:49;;;;;;;12.13;3.80;;;;;;;7.54;100.00;69226.88;5074076;28;20526;-50
2024/02/18 11:19:20;;;;;;;;;;;;;;;7.55;100.00;69231.22;5072214;28;20037;-49
2024/02/18 11:21:51;;;;;;;10.88;3.60;;;;;;;7.59;100.00;69233.28;5073554;28;20429;-52
2024/02/18 11:24:23;;;;;;;9.40;3.63;;;;;;;7.60;100.00;69239.63;5074784;28;20059;-61
2024/02/18 11:26:52;;;;;;;11.63;3.88;;;;;;;7.59;100.00;69233.28;5074016;28;20090;-50
2024/02/18 11:29:21;;;;;;;12.27;3.70;;;;;;;7.60;100.00;69233.84;5071583;28;20070;-50
2024/02/18 11:31:50;;;;;;;12.55;4.00;;;;;;;7.61;100.00;69232.44;5070809;28;20053;-52
2024/02/18 11:34:18;;;;;;;8.32;3.15;;;;;;;7.67;100.00;69238.84;5069082;28;20045;-49